Weather at La Guardia Airport

Public forecast

Using degrees Fahrenheit for public forecast. Weather courtesy of forecast.io.

Current aviation weather report (METAR) for La Guardia Airport

Retrieved 2022/05/19 08:42 UTC (9 minutes ago):

KLGA 190842Z VRB03KT 5SM RA BR BKN009 BKN017 OVC038 13/11 A2983 RMK AO2 P0007 T01330111

Aviation forecast (TAF) for La Guardia Airport

Retrieved 2022/05/19 09:36 UTC (0 seconds ago):

TAF KLGA 190834Z 1909/2012 18006KT 6SM -RA BKN011 FM191000 17010KT 5SM -RA BR OVC008 FM191200 14011KT 3SM -SHRA BR OVC006 FM191500 10009KT 5SM BR OVC009 FM191800 33007KT P6SM BKN020 FM192100 28008KT P6SM SCT030 SCT050 FM200000 19006KT P6SM SCT050